Accueil
METAR-TAF:

METAR-TAF

Aéroports :

Base aérienne de Beauvechain

Beauvechain, Belgique

latitude: 50-45N, longitude: 004-46E, altitude: 105 m

Observation

Le bulletin a été fait il y a 34 minutes, à 06:55 UTC
Vent 5 kt de nord/nord-est
Température 4°C
Humidité 81%
Pression 1026 hPa
Visibilité 10 km ou plus

METAR: EBBE 170655Z AUTO 02005KT 9999 SCT130/// BKN160/// 04/01 Q1026 BLU

Heure: 09:29 (07:29 UTC)

Prévision

Le bulletin a été fait il y a 19 heures et 48 minutes, à 11:41 UTC
Prévision valable du 16 à 13 UTC au 16 à 22 UTC
Vent 7 kt de nord/nord-est
Visibilité 10 km ou plus
Nuages épars à une hauteur de 5000 ft

TAF: EBBE 161141Z 1613/1622 03007KT 9999 SCT050

Observations et prévisions météorologiques de plus de 4000 aéroports (messages METAR et TAF).

Les stations disponibles sont représentées par des disques jaunes et rouges sur la carte.

Passer la souris dessus pour voir le nom de la station.

Cliquer dessus pour voir les observations et prévisions météorologiques.

Pour changer de carte: cliquez sur les boutons verts avec une croix noire pour zoomer, sur le bouton vert avec un tiret pour effectuer un zoom arrière, ou sur les flèches vertes pour les cartes adjacentes.


METAR-TAF: